createdAt,value
2023-01-07T00:02:11.736Z,100612.94
2023-01-07T00:07:15.886Z,100609.28
2023-01-07T00:12:18.719Z,100611.19
2023-01-07T00:17:21.530Z,100612.28
2023-01-07T00:22:25.675Z,100602.25
2023-01-07T00:27:28.486Z,100600.50
2023-01-07T00:32:50.907Z,100596.66
2023-01-07T00:37:55.418Z,100584.50
2023-01-07T00:43:02.316Z,100590.00
2023-01-07T00:48:06.081Z,100578.75
2023-01-07T00:53:12.004Z,100575.75
2023-01-07T00:58:16.398Z,100571.56
2023-01-07T01:03:20.253Z,100562.75
2023-01-07T01:08:24.443Z,100574.38
2023-01-07T01:13:27.169Z,100573.16
2023-01-07T01:18:29.748Z,100568.00
2023-01-07T01:23:34.279Z,100563.44
2023-01-07T01:28:37.181Z,100559.81
2023-01-07T01:33:40.181Z,100555.38
2023-01-07T01:38:44.397Z,100560.25
2023-01-07T01:43:48.047Z,100569.53
2023-01-07T01:48:57.717Z,100576.66
2023-01-07T01:54:04.947Z,100570.97
2023-01-07T01:59:12.352Z,100565.63
2023-01-07T02:04:19.290Z,100562.06
2023-01-07T02:09:23.810Z,100565.72
2023-01-07T02:14:42.044Z,100557.91
2023-01-07T02:20:19.458Z,100558.50
2023-01-07T02:25:53.792Z,100569.72
2023-01-07T02:31:17.699Z,100565.56
2023-01-07T02:36:32.269Z,100563.19
2023-01-07T02:41:46.337Z,100543.13
2023-01-07T02:46:56.507Z,100540.91
2023-01-07T02:52:17.262Z,100534.09
2023-01-07T02:57:49.088Z,100517.97
2023-01-07T03:03:13.891Z,100513.81
2023-01-07T03:08:34.643Z,100515.44
2023-01-07T03:13:42.054Z,100508.16
2023-01-07T03:18:50.532Z,100496.97
2023-01-07T03:23:58.018Z,100493.75
2023-01-07T03:29:02.734Z,100485.25
2023-01-07T03:34:09.246Z,100483.41
2023-01-07T03:39:15.155Z,100474.53
2023-01-07T03:44:18.502Z,100490.22
2023-01-07T03:49:21.513Z,100476.22
2023-01-07T03:54:26.037Z,100477.22
2023-01-07T03:59:29.058Z,100463.19
2023-01-07T04:04:33.350Z,100456.69
2023-01-07T04:09:38.302Z,100452.41
2023-01-07T04:14:42.419Z,100453.50
2023-01-07T04:19:47.984Z,100445.16
2023-01-07T04:24:52.266Z,100437.34
2023-01-07T04:29:55.618Z,100428.66
2023-01-07T04:34:58.570Z,100426.81
2023-01-07T04:40:03.495Z,100424.28
2023-01-07T04:45:11.531Z,100430.31
2023-01-07T04:50:15.474Z,100422.91
2023-01-07T04:55:20.143Z,100418.50
2023-01-07T05:00:24.557Z,100420.00
2023-01-07T05:05:29.853Z,100413.66
2023-01-07T05:10:34.871Z,100409.81
2023-01-07T05:15:38.470Z,100409.28
2023-01-07T05:20:41.508Z,100408.13
2023-01-07T05:25:46.160Z,100407.00
2023-01-07T05:30:49.275Z,100407.00
2023-01-07T05:35:52.206Z,100399.28
2023-01-07T05:40:57.429Z,100395.31
2023-01-07T05:46:02.607Z,100398.13
2023-01-07T05:51:05.917Z,100403.59
2023-01-07T05:56:10.078Z,100399.22
2023-01-07T06:01:13.058Z,100398.41
2023-01-07T06:06:15.892Z,100403.16
2023-01-07T06:11:20.085Z,100403.47
2023-01-07T06:16:22.867Z,100398.97
2023-01-07T06:21:25.732Z,100389.34
2023-01-07T06:26:29.978Z,100394.50
2023-01-07T06:31:32.940Z,100386.00
2023-01-07T06:36:35.769Z,100376.91
2023-01-07T06:41:39.921Z,100383.22
2023-01-07T06:46:42.748Z,100375.19
2023-01-07T06:51:45.552Z,100363.44
2023-01-07T06:56:49.729Z,100364.28
2023-01-07T07:01:52.605Z,100358.91
2023-01-07T07:06:55.726Z,100357.59
2023-01-07T07:11:59.854Z,100357.53
2023-01-07T07:17:02.782Z,100347.84
2023-01-07T07:22:05.575Z,100352.97
2023-01-07T07:27:09.713Z,100330.56
2023-01-07T07:32:12.494Z,100336.19
2023-01-07T07:37:15.266Z,100339.16
2023-01-07T07:42:19.512Z,100338.91
2023-01-07T07:47:22.347Z,100328.25
2023-01-07T07:52:25.300Z,100331.03
2023-01-07T07:57:29.450Z,100330.47
2023-01-07T08:02:32.318Z,100317.81
2023-01-07T08:07:37.563Z,100317.34
2023-01-07T08:12:41.877Z,100323.59
2023-01-07T08:17:44.628Z,100329.41
2023-01-07T08:22:47.371Z,100321.69
2023-01-07T08:27:51.484Z,100320.63
2023-01-07T08:32:54.705Z,100318.53
2023-01-07T08:38:02.327Z,100321.31
2023-01-07T08:43:08.993Z,100323.81
2023-01-07T08:48:11.763Z,100316.13
2023-01-07T08:53:14.686Z,100312.47
2023-01-07T08:58:19.128Z,100311.53
2023-01-07T09:03:22.080Z,100305.69
2023-01-07T09:08:24.941Z,100305.78
2023-01-07T09:13:29.153Z,100300.31
2023-01-07T09:18:31.999Z,100299.41
2023-01-07T09:23:34.772Z,100283.63
2023-01-07T09:28:38.932Z,100296.81
2023-01-07T09:33:41.822Z,100285.13
2023-01-07T09:38:44.709Z,100283.13
2023-01-07T09:44:01.085Z,100285.66
2023-01-07T09:49:05.277Z,100290.81
2023-01-07T09:54:21.064Z,100290.22
2023-01-07T09:59:25.322Z,100294.13
2023-01-07T10:04:36.139Z,100283.16
2023-01-07T10:09:49.681Z,100280.09
2023-01-07T10:15:22.587Z,100276.56
2023-01-07T10:20:31.976Z,100264.38
2023-01-07T10:25:38.754Z,100263.00
2023-01-07T10:30:46.999Z,100257.75
2023-01-07T10:35:54.784Z,100248.22
2023-01-07T10:41:04.768Z,100249.28
2023-01-07T10:46:25.526Z,100238.22
2023-01-07T10:51:53.195Z,100239.34
2023-01-07T10:57:02.154Z,100226.41
2023-01-07T11:02:16.144Z,100208.13
2023-01-07T11:07:28.672Z,100200.53
2023-01-07T11:12:38.251Z,100188.06
2023-01-07T11:17:47.049Z,100185.66
2023-01-07T11:22:49.810Z,100173.78
2023-01-07T11:27:52.698Z,100175.38
2023-01-07T11:33:00.728Z,100154.41
2023-01-07T11:38:03.485Z,100145.31
2023-01-07T11:43:23.192Z,100137.06
2023-01-07T11:48:31.028Z,100128.19
2023-01-07T11:53:37.305Z,100122.81
2023-01-07T11:58:42.136Z,100102.91
2023-01-07T12:04:02.266Z,100102.84
2023-01-07T12:09:16.132Z,100088.88
2023-01-07T12:14:28.003Z,100078.50
2023-01-07T12:19:59.202Z,100064.06
2023-01-07T12:25:28.707Z,100052.09
2023-01-07T12:31:03.934Z,100035.44
2023-01-07T12:36:14.435Z,100025.88
2023-01-07T12:41:21.429Z,100017.19
2023-01-07T12:46:26.038Z,99991.16
2023-01-07T12:51:38.219Z,99981.28
2023-01-07T12:56:47.502Z,99975.50
2023-01-07T13:01:58.541Z,99966.25
2023-01-07T13:07:12.565Z,99959.50
2023-01-07T13:12:43.204Z,99956.09
2023-01-07T13:17:46.499Z,99959.13
2023-01-07T13:22:54.134Z,99951.53
2023-01-07T13:28:18.438Z,99935.22
2023-01-07T13:33:26.596Z,99924.03
2023-01-07T13:38:56.075Z,99901.56
2023-01-07T13:44:16.061Z,99905.13
2023-01-07T13:49:26.635Z,99906.84
2023-01-07T13:54:56.820Z,99901.50
2023-01-07T14:00:01.225Z,99910.94
2023-01-07T14:05:08.213Z,99900.16
2023-01-07T14:10:24.384Z,99902.59
2023-01-07T14:15:53.542Z,99891.53
2023-01-07T14:21:07.478Z,99887.69
2023-01-07T14:26:21.147Z,99885.97
2023-01-07T14:31:26.339Z,99865.63
2023-01-07T14:37:17.135Z,99865.72
2023-01-07T14:42:43.574Z,99871.47
2023-01-07T14:47:54.524Z,99862.13
2023-01-07T14:53:46.369Z,99844.13
2023-01-07T14:59:08.559Z,99843.72
2023-01-07T15:04:55.702Z,99842.44
2023-01-07T15:10:25.536Z,99835.50
2023-01-07T15:15:52.957Z,99833.50
2023-01-07T15:21:10.335Z,99827.88
2023-01-07T15:26:20.091Z,99826.75
2023-01-07T15:31:29.985Z,99830.63
2023-01-07T15:36:33.514Z,99823.63
2023-01-07T15:41:38.883Z,99809.94
2023-01-07T15:46:43.087Z,99802.50
2023-01-07T15:51:48.887Z,99789.91
2023-01-07T15:56:54.822Z,99783.09
2023-01-07T16:02:05.398Z,99784.41
2023-01-07T16:07:21.440Z,99785.50
2023-01-07T16:12:33.332Z,99771.91
2023-01-07T16:17:37.478Z,99775.69
2023-01-07T16:22:42.203Z,99767.31
2023-01-07T16:27:45.447Z,99754.34
2023-01-07T16:32:49.890Z,99751.16
2023-01-07T16:37:53.766Z,99739.72
2023-01-07T16:42:57.175Z,99735.16
2023-01-07T16:48:03.726Z,99733.81
2023-01-07T16:53:22.871Z,99727.88
2023-01-07T16:58:30.074Z,99724.50
2023-01-07T17:03:45.695Z,99718.03
2023-01-07T17:08:51.576Z,99715.56
2023-01-07T17:13:54.549Z,99708.69
2023-01-07T17:19:00.299Z,99707.81
2023-01-07T17:24:03.152Z,99712.91
2023-01-07T17:29:12.909Z,99704.44
2023-01-07T17:34:18.149Z,99692.75
2023-01-07T17:39:21.025Z,99681.22
2023-01-07T17:44:23.798Z,99691.06
2023-01-07T17:49:27.913Z,99672.84
2023-01-07T17:54:32.111Z,99674.56
2023-01-07T17:59:34.834Z,99679.03
2023-01-07T18:04:38.921Z,99684.59
2023-01-07T18:09:42.298Z,99685.44
2023-01-07T18:14:45.073Z,99677.63
2023-01-07T18:19:50.417Z,99672.16
2023-01-07T18:24:53.297Z,99672.56
2023-01-07T18:29:56.411Z,99670.03
2023-01-07T18:35:00.537Z,99663.09
2023-01-07T18:40:03.587Z,99674.63
2023-01-07T18:45:07.853Z,99663.88
2023-01-07T18:50:11.998Z,99653.16
2023-01-07T18:55:17.370Z,99655.81
2023-01-07T19:00:20.630Z,99649.16
2023-01-07T19:05:24.916Z,99646.13
2023-01-07T19:10:27.678Z,99651.38
2023-01-07T19:15:30.489Z,99642.44
2023-01-07T19:20:34.654Z,99629.56
2023-01-07T19:25:37.495Z,99620.41
2023-01-07T19:30:40.325Z,99594.56
2023-01-07T19:35:44.465Z,99597.53
2023-01-07T19:40:47.340Z,99590.66
2023-01-07T19:45:54.431Z,99568.59
2023-01-07T19:51:00.096Z,99580.06
2023-01-07T19:56:05.509Z,99556.00
2023-01-07T20:01:10.579Z,99551.09
2023-01-07T20:06:17.354Z,99538.22
2023-01-07T20:11:20.347Z,99557.59
2023-01-07T20:16:24.777Z,99530.03
2023-01-07T20:21:29.004Z,99510.13
2023-01-07T20:26:33.077Z,99505.28
2023-01-07T20:31:35.934Z,99531.16
2023-01-07T20:36:40.216Z,99544.22
2023-01-07T20:41:43.893Z,99556.41
2023-01-07T20:46:47.065Z,99542.97
2023-01-07T20:51:51.434Z,99545.94
2023-01-07T20:56:54.237Z,99524.50
2023-01-07T21:01:57.173Z,99531.03
2023-01-07T21:07:01.432Z,99530.50
2023-01-07T21:12:04.482Z,99528.25
2023-01-07T21:17:07.342Z,99521.94
2023-01-07T21:22:11.629Z,99517.56
2023-01-07T21:27:14.421Z,99513.50
2023-01-07T21:32:17.328Z,99512.94
2023-01-07T21:37:21.463Z,99514.88
2023-01-07T21:42:24.290Z,99503.38
2023-01-07T21:47:27.102Z,99493.94
2023-01-07T21:52:31.290Z,99491.28
2023-01-07T21:57:36.948Z,99483.66
2023-01-07T22:02:39.829Z,99484.69
2023-01-07T22:07:43.914Z,99487.19
2023-01-07T22:12:46.662Z,99485.81
2023-01-07T22:17:49.417Z,99486.84
2023-01-07T22:22:53.618Z,99471.34
2023-01-07T22:27:57.813Z,99479.94
2023-01-07T22:33:00.930Z,99490.94
2023-01-07T22:38:05.378Z,99479.16
2023-01-07T22:43:10.597Z,99496.19
2023-01-07T22:48:16.292Z,99493.66
2023-01-07T22:53:20.653Z,99480.00
2023-01-07T22:58:23.382Z,99468.94
2023-01-07T23:03:26.543Z,99465.06
2023-01-07T23:08:30.807Z,99464.25
2023-01-07T23:13:33.682Z,99459.66
2023-01-07T23:18:36.442Z,99460.53
2023-01-07T23:23:40.593Z,99457.63
2023-01-07T23:28:43.310Z,99439.59
2023-01-07T23:33:46.150Z,99440.16
2023-01-07T23:38:50.270Z,99421.84
2023-01-07T23:43:53.017Z,99415.69
2023-01-07T23:48:55.841Z,99435.84
2023-01-07T23:54:00.002Z,99429.50
2023-01-07T23:59:03.292Z,99423.03
